createdAt,value
2023-04-26T00:00:04.068Z,51.70
2023-04-26T00:02:04.340Z,50.80
2023-04-26T00:03:09.387Z,51.10
2023-04-26T00:05:04.376Z,51.40
2023-04-26T00:06:06.658Z,51.40
2023-04-26T00:09:06.907Z,51.90
2023-04-26T00:10:09.685Z,51.30
2023-04-26T00:11:06.697Z,51.70
2023-04-26T00:12:06.706Z,52.00
2023-04-26T00:14:03.843Z,51.70
2023-04-26T00:15:04.501Z,51.70
2023-04-26T00:16:04.251Z,51.80
2023-04-26T00:17:03.904Z,51.60
2023-04-26T00:19:04.112Z,52.10
2023-04-26T00:20:06.192Z,52.10
2023-04-26T00:22:04.196Z,52.10
2023-04-26T00:23:06.413Z,52.20
2023-04-26T00:24:09.369Z,51.80
2023-04-26T00:25:06.410Z,52.30
2023-04-26T00:27:04.418Z,52.30
2023-04-26T00:29:03.536Z,52.30
2023-04-26T00:30:06.201Z,52.50
2023-04-26T00:31:06.289Z,52.70
2023-04-26T00:33:04.394Z,53.20
2023-04-26T00:34:06.615Z,53.10
2023-04-26T00:36:06.403Z,53.00
2023-04-26T00:38:06.954Z,52.60
2023-04-26T00:39:06.193Z,52.30
2023-04-26T00:40:06.394Z,53.00
2023-04-26T00:41:09.003Z,52.90
2023-04-26T00:42:04.432Z,52.90
2023-04-26T00:43:06.539Z,53.40
2023-04-26T00:45:03.505Z,53.20
2023-04-26T00:46:04.174Z,53.50
2023-04-26T00:47:08.881Z,53.30
2023-04-26T00:49:06.838Z,53.10
2023-04-26T00:51:03.858Z,53.00
2023-04-26T00:52:06.917Z,53.40
2023-04-26T00:53:07.049Z,53.80
2023-04-26T00:55:04.022Z,53.10
2023-04-26T00:56:06.275Z,53.70
2023-04-26T00:58:06.983Z,53.30
2023-04-26T00:59:06.984Z,52.30
2023-04-26T01:00:07.022Z,52.10
2023-04-26T01:02:04.223Z,52.20
2023-04-26T01:03:06.923Z,51.90
2023-04-26T01:04:09.659Z,52.30
2023-04-26T01:06:09.311Z,52.40
2023-04-26T01:08:04.305Z,52.60
2023-04-26T01:09:06.415Z,52.80
2023-04-26T01:10:03.870Z,52.70
2023-04-26T01:11:04.422Z,53.30
2023-04-26T01:12:09.069Z,53.20
2023-04-26T01:14:04.040Z,53.30
2023-04-26T01:15:03.576Z,52.90
2023-04-26T01:16:04.146Z,53.00
2023-04-26T01:17:06.378Z,53.20
2023-04-26T01:19:03.454Z,53.30
2023-04-26T01:20:03.967Z,53.20
2023-04-26T01:22:06.152Z,53.70
2023-04-26T01:23:03.539Z,53.60
2023-04-26T01:24:06.649Z,54.00
2023-04-26T01:25:09.548Z,54.30
2023-04-26T01:27:06.248Z,54.40
2023-04-26T01:29:04.277Z,54.90
2023-04-26T01:30:04.220Z,54.80
2023-04-26T01:32:04.398Z,54.40
2023-04-26T01:33:09.275Z,54.30
2023-04-26T01:34:03.828Z,54.00
2023-04-26T01:35:04.454Z,53.90
2023-04-26T01:36:06.097Z,54.20
2023-04-26T01:37:03.484Z,54.00
2023-04-26T01:38:04.028Z,54.60
2023-04-26T01:39:03.632Z,54.10
2023-04-26T01:40:09.319Z,53.00
2023-04-26T01:41:03.756Z,53.10
2023-04-26T01:42:04.363Z,53.20
2023-04-26T01:43:03.844Z,52.90
2023-04-26T01:44:04.489Z,52.30
2023-04-26T01:45:06.620Z,52.50
2023-04-26T01:47:03.658Z,52.30
2023-04-26T01:48:04.290Z,52.00
2023-04-26T01:49:03.845Z,52.60
2023-04-26T01:50:04.355Z,52.20
2023-04-26T01:51:09.030Z,53.00
2023-04-26T01:53:04.043Z,52.90
2023-04-26T01:55:06.724Z,53.10
2023-04-26T01:57:03.700Z,52.60
2023-04-26T01:58:06.774Z,52.80
2023-04-26T02:00:03.781Z,52.80
2023-04-26T02:01:06.914Z,53.20
2023-04-26T02:02:07.091Z,53.50
2023-04-26T02:03:06.321Z,53.50
2023-04-26T02:04:03.798Z,53.20
2023-04-26T02:05:07.146Z,53.10
2023-04-26T02:07:08.985Z,53.50
2023-04-26T02:10:03.638Z,53.80
2023-04-26T02:11:04.168Z,54.00
2023-04-26T02:12:03.752Z,53.80
2023-04-26T02:13:06.903Z,53.50
2023-04-26T02:14:04.437Z,53.50
2023-04-26T02:15:04.065Z,53.30
2023-04-26T02:16:03.710Z,52.50
2023-04-26T02:17:04.450Z,53.40
2023-04-26T02:18:04.115Z,53.20
2023-04-26T02:19:03.850Z,53.20
2023-04-26T02:20:04.425Z,53.00
2023-04-26T02:21:03.926Z,53.10
2023-04-26T02:23:04.321Z,53.00
2023-04-26T02:24:04.118Z,53.00
2023-04-26T02:25:06.334Z,53.20
2023-04-26T02:26:06.365Z,53.10
2023-04-26T02:27:06.318Z,53.30
2023-04-26T02:29:04.475Z,53.60
2023-04-26T02:32:04.310Z,53.80
2023-04-26T02:34:05.963Z,53.70
2023-04-26T02:35:04.385Z,53.60
2023-04-26T02:36:03.993Z,53.60
2023-04-26T02:38:04.419Z,53.30
2023-04-26T02:39:06.465Z,53.50
2023-04-26T02:40:06.488Z,53.50
2023-04-26T02:41:03.974Z,53.10
2023-04-26T02:42:06.105Z,53.70
2023-04-26T02:44:04.230Z,53.30
2023-04-26T02:45:06.461Z,53.70
2023-04-26T02:46:06.502Z,53.30
2023-04-26T02:47:07.018Z,53.60
2023-04-26T02:49:03.698Z,53.60
2023-04-26T02:50:06.459Z,53.20
2023-04-26T02:51:06.488Z,53.20
2023-04-26T02:52:03.985Z,53.40
2023-04-26T02:53:03.546Z,53.30
2023-04-26T02:54:07.267Z,53.60
2023-04-26T02:56:03.760Z,53.90
2023-04-26T02:57:09.443Z,53.40
2023-04-26T02:59:05.973Z,53.40
2023-04-26T03:01:03.984Z,53.80
2023-04-26T03:02:06.277Z,53.70
2023-04-26T03:04:06.209Z,53.40
2023-04-26T03:06:04.405Z,53.60
2023-04-26T03:07:03.898Z,53.40
2023-04-26T03:08:06.040Z,53.70
2023-04-26T03:10:06.666Z,54.00
2023-04-26T03:11:06.890Z,53.90
2023-04-26T03:15:09.181Z,53.90
2023-04-26T03:17:06.832Z,54.10
2023-04-26T03:19:03.797Z,53.90
2023-04-26T03:20:04.284Z,53.70
2023-04-26T03:22:06.087Z,54.10
2023-04-26T03:23:08.708Z,54.10
2023-04-26T03:25:03.984Z,54.20
2023-04-26T03:26:08.735Z,54.40
2023-04-26T03:28:03.709Z,55.00
2023-04-26T03:29:06.769Z,54.80
2023-04-26T03:31:03.684Z,54.60
2023-04-26T03:32:06.913Z,54.90
2023-04-26T03:33:04.469Z,55.00
2023-04-26T03:34:04.059Z,55.20
2023-04-26T03:35:03.632Z,55.00
2023-04-26T03:36:09.304Z,54.60
2023-04-26T03:38:09.361Z,54.70
2023-04-26T03:39:03.838Z,54.60
2023-04-26T03:40:06.024Z,54.90
2023-04-26T03:42:04.093Z,54.90
2023-04-26T03:43:03.903Z,54.80
2023-04-26T03:44:09.132Z,54.80
2023-04-26T03:45:04.020Z,54.90
2023-04-26T03:46:06.352Z,54.40
2023-04-26T03:49:09.662Z,55.00
2023-04-26T03:50:04.087Z,55.20
2023-04-26T03:51:06.195Z,55.60
2023-04-26T03:53:04.203Z,55.70
2023-04-26T03:55:03.542Z,55.50
2023-04-26T03:56:04.242Z,55.70
2023-04-26T03:57:06.648Z,55.50
2023-04-26T03:58:06.716Z,55.70
2023-04-26T03:59:04.247Z,55.50
2023-04-26T04:00:03.775Z,55.40
2023-04-26T04:01:03.460Z,55.80
2023-04-26T04:02:04.097Z,55.60
2023-04-26T04:03:09.346Z,55.60
2023-04-26T04:05:04.168Z,55.60
2023-04-26T04:06:06.816Z,55.70
2023-04-26T04:08:03.871Z,55.60
2023-04-26T04:09:04.474Z,55.60
2023-04-26T04:10:06.670Z,56.20
2023-04-26T04:11:06.649Z,56.30
2023-04-26T04:13:03.603Z,56.30
2023-04-26T04:14:04.187Z,56.30
2023-04-26T04:15:03.728Z,56.10
2023-04-26T04:16:04.386Z,56.50
2023-04-26T04:17:03.934Z,56.50
2023-04-26T04:18:06.187Z,56.40
2023-04-26T04:19:03.705Z,56.20
2023-04-26T04:20:09.317Z,56.20
2023-04-26T04:21:08.838Z,56.10
2023-04-26T04:22:04.299Z,56.10
2023-04-26T04:23:13.993Z,56.50
2023-04-26T04:24:04.453Z,56.40
2023-04-26T04:25:09.456Z,56.20
2023-04-26T04:26:03.928Z,56.30
2023-04-26T04:27:03.497Z,56.20
2023-04-26T04:28:06.602Z,56.10
2023-04-26T04:30:03.704Z,56.20
2023-04-26T04:31:04.459Z,56.20
2023-04-26T04:32:04.050Z,56.20
2023-04-26T04:33:03.824Z,56.20
2023-04-26T04:34:04.412Z,56.30
2023-04-26T04:36:06.097Z,56.50
2023-04-26T04:37:06.189Z,56.30
2023-04-26T04:38:06.155Z,56.30
2023-04-26T04:40:04.298Z,56.50
2023-04-26T04:41:03.998Z,56.30
2023-04-26T04:42:03.657Z,56.10
2023-04-26T04:43:04.284Z,56.10
2023-04-26T04:44:03.865Z,56.30
2023-04-26T04:45:03.501Z,56.10
2023-04-26T04:46:04.181Z,56.40
2023-04-26T04:47:03.556Z,56.80
2023-04-26T04:48:06.383Z,56.30
2023-04-26T04:49:09.021Z,56.80
2023-04-26T04:50:03.506Z,56.70
2023-04-26T04:51:03.952Z,56.50
2023-04-26T04:52:06.159Z,56.50
2023-04-26T04:53:03.668Z,56.40
2023-04-26T04:54:04.326Z,56.60
2023-04-26T04:55:06.369Z,56.50
2023-04-26T04:57:03.527Z,56.20
2023-04-26T04:58:04.199Z,56.10
2023-04-26T04:59:06.244Z,55.60
2023-04-26T05:01:04.144Z,55.00
2023-04-26T05:02:06.383Z,54.90
2023-04-26T05:04:04.068Z,54.40
2023-04-26T05:05:08.868Z,54.90
2023-04-26T05:08:06.865Z,53.60
2023-04-26T05:09:04.381Z,53.80
2023-04-26T05:10:04.544Z,52.80
2023-04-26T05:11:09.248Z,52.80
2023-04-26T05:13:09.073Z,51.10
2023-04-26T05:15:04.264Z,50.90
2023-04-26T05:16:06.508Z,50.20
2023-04-26T05:18:11.442Z,49.30
2023-04-26T05:20:04.080Z,48.50
2023-04-26T05:21:03.701Z,48.60
2023-04-26T05:22:04.439Z,47.90
2023-04-26T05:23:06.575Z,47.90
2023-04-26T05:24:06.619Z,47.60
2023-04-26T05:25:06.640Z,47.00
2023-04-26T05:26:14.336Z,46.80
2023-04-26T05:28:03.452Z,46.90
2023-04-26T05:29:06.519Z,46.60
2023-04-26T05:31:06.166Z,46.20
2023-04-26T05:32:09.175Z,44.90
2023-04-26T05:34:06.252Z,43.90
2023-04-26T05:36:04.166Z,44.30
2023-04-26T05:37:03.921Z,43.70
2023-04-26T05:39:06.640Z,42.80
2023-04-26T05:40:04.232Z,42.80
2023-04-26T05:41:06.620Z,42.50
2023-04-26T05:42:06.660Z,43.10
2023-04-26T05:43:06.650Z,41.50
2023-04-26T05:44:04.213Z,41.30
2023-04-26T05:45:06.434Z,41.90
2023-04-26T05:47:03.711Z,42.10
2023-04-26T05:48:04.480Z,41.70
2023-04-26T05:49:04.057Z,41.90
2023-04-26T05:50:06.287Z,43.50
2023-04-26T05:52:06.849Z,43.90
2023-04-26T05:53:04.309Z,43.90
2023-04-26T05:54:06.419Z,43.60
2023-04-26T05:55:11.433Z,45.50
2023-04-26T05:57:04.503Z,44.80
2023-04-26T05:58:06.704Z,43.40
2023-04-26T05:59:04.328Z,42.90
2023-04-26T06:00:03.941Z,42.70
2023-04-26T06:02:06.675Z,40.90
2023-04-26T06:03:04.572Z,41.40
2023-04-26T06:04:05.399Z,41.40
2023-04-26T06:05:04.529Z,40.50
2023-04-26T06:06:06.895Z,40.00
2023-04-26T06:08:06.517Z,39.30
2023-04-26T06:10:06.250Z,39.10
2023-04-26T06:11:06.214Z,38.70
2023-04-26T06:12:08.742Z,38.30
2023-04-26T06:13:04.173Z,38.20
2023-04-26T06:14:29.767Z,37.60
2023-04-26T06:16:06.345Z,36.50
2023-04-26T06:17:03.926Z,36.90
2023-04-26T06:18:03.633Z,37.30
2023-04-26T06:19:04.273Z,36.90
2023-04-26T06:21:04.409Z,37.30
2023-04-26T06:22:03.992Z,37.10
2023-04-26T06:23:06.222Z,36.90
2023-04-26T06:24:06.268Z,37.10
2023-04-26T06:26:04.483Z,37.20
2023-04-26T06:27:04.211Z,37.50
2023-04-26T06:28:03.804Z,37.80
2023-04-26T06:29:03.773Z,38.40
2023-04-26T06:30:04.401Z,38.30
2023-04-26T06:31:04.267Z,38.50
2023-04-26T06:32:03.883Z,39.20
2023-04-26T06:33:06.823Z,39.70
2023-04-26T06:34:08.732Z,40.30
2023-04-26T06:35:06.747Z,39.40
2023-04-26T06:37:06.577Z,41.00
2023-04-26T06:39:03.857Z,40.80
2023-04-26T06:40:04.423Z,40.60
2023-04-26T06:41:11.699Z,41.90
2023-04-26T06:43:06.423Z,39.20
2023-04-26T06:45:06.209Z,38.10
2023-04-26T06:47:03.822Z,38.00
2023-04-26T06:48:04.762Z,37.40
2023-04-26T06:49:04.429Z,37.50
2023-04-26T06:50:06.644Z,38.10
2023-04-26T06:51:06.884Z,38.10
2023-04-26T06:53:04.107Z,37.70
2023-04-26T06:55:04.319Z,37.80
2023-04-26T06:56:06.505Z,38.60
2023-04-26T06:58:03.533Z,38.70
2023-04-26T06:59:04.025Z,39.60
2023-04-26T07:00:08.748Z,38.80
2023-04-26T07:01:09.337Z,39.20
2023-04-26T07:02:03.854Z,39.10
2023-04-26T07:03:04.870Z,39.10
2023-04-26T07:04:03.826Z,38.20
2023-04-26T07:05:03.953Z,37.50
2023-04-26T07:06:06.098Z,37.70
2023-04-26T07:08:11.701Z,37.30
2023-04-26T07:09:11.810Z,38.10
2023-04-26T07:11:04.366Z,37.30
2023-04-26T07:12:03.879Z,36.90
2023-04-26T07:14:04.316Z,37.20
2023-04-26T07:15:06.457Z,37.50
2023-04-26T07:17:11.362Z,37.70
2023-04-26T07:19:04.433Z,38.40
2023-04-26T07:20:04.293Z,39.30
2023-04-26T07:21:03.880Z,39.30
2023-04-26T07:22:06.410Z,39.70
2023-04-26T07:24:03.688Z,39.40
2023-04-26T07:25:04.340Z,39.40
2023-04-26T07:26:03.988Z,39.00
2023-04-26T07:28:04.174Z,38.20
2023-04-26T07:29:03.751Z,38.00
2023-04-26T07:30:04.398Z,38.00
2023-04-26T07:31:04.568Z,38.00
2023-04-26T07:32:04.493Z,37.30
2023-04-26T07:33:04.171Z,37.50
2023-04-26T07:34:04.208Z,37.20
2023-04-26T07:35:03.949Z,37.20
2023-04-26T07:36:06.223Z,38.20
2023-04-26T07:37:03.656Z,38.50
2023-04-26T07:38:06.809Z,39.30
2023-04-26T07:39:04.274Z,39.30
2023-04-26T07:40:03.651Z,39.00
2023-04-26T07:41:03.992Z,39.10
2023-04-26T07:42:03.513Z,39.30
2023-04-26T07:43:04.137Z,40.00
2023-04-26T07:44:03.846Z,39.50
2023-04-26T07:45:04.465Z,39.10
2023-04-26T07:46:04.171Z,38.40
2023-04-26T07:48:07.044Z,37.40
2023-04-26T07:49:03.597Z,37.10
2023-04-26T07:50:04.290Z,37.40
2023-04-26T07:51:03.878Z,37.20
2023-04-26T07:52:11.187Z,36.60
2023-04-26T07:53:03.682Z,36.60
2023-04-26T07:54:06.822Z,37.00
2023-04-26T07:56:06.486Z,37.50
2023-04-26T07:58:06.177Z,36.70
2023-04-26T08:00:04.278Z,36.80
2023-04-26T08:02:06.155Z,35.80
2023-04-26T08:04:04.254Z,34.80
2023-04-26T08:05:04.585Z,34.70
2023-04-26T08:06:07.202Z,34.90
2023-04-26T08:07:04.057Z,34.70
2023-04-26T08:08:03.612Z,34.80
2023-04-26T08:09:04.213Z,34.70
2023-04-26T08:10:06.381Z,35.10
2023-04-26T08:12:06.148Z,35.60
2023-04-26T08:13:06.203Z,36.00
2023-04-26T08:14:03.752Z,35.60
2023-04-26T08:15:04.461Z,35.80
2023-04-26T08:16:06.627Z,36.20
2023-04-26T08:17:06.788Z,36.30
2023-04-26T08:19:06.994Z,36.40
2023-04-26T08:20:04.643Z,36.50
2023-04-26T08:21:06.878Z,36.80
2023-04-26T08:22:04.399Z,36.60
2023-04-26T08:25:04.203Z,38.40
2023-04-26T08:26:06.285Z,38.10
2023-04-26T08:27:03.991Z,38.00
2023-04-26T08:28:04.222Z,37.70
2023-04-26T08:31:04.313Z,36.20
2023-04-26T08:32:03.932Z,36.20
2023-04-26T08:34:09.306Z,34.50
2023-04-26T08:35:03.790Z,34.50
2023-04-26T08:36:09.518Z,32.70
2023-04-26T08:37:06.529Z,31.90
2023-04-26T08:40:06.937Z,31.20
2023-04-26T08:41:09.408Z,31.10
2023-04-26T08:42:03.800Z,31.10
2023-04-26T08:43:04.346Z,31.20
2023-04-26T08:44:11.542Z,31.40
2023-04-26T08:46:06.110Z,32.30
2023-04-26T08:47:06.353Z,32.10
2023-04-26T08:50:04.396Z,31.40
2023-04-26T08:51:03.949Z,31.10
2023-04-26T08:52:06.177Z,30.50
2023-04-26T08:53:03.685Z,30.30
2023-04-26T08:54:05.323Z,30.30
2023-04-26T08:55:03.899Z,30.10
2023-04-26T08:56:03.425Z,30.40
2023-04-26T08:57:06.573Z,31.10
2023-04-26T08:59:03.597Z,30.80
2023-04-26T09:00:04.150Z,30.30
2023-04-26T09:01:06.317Z,30.50
2023-04-26T09:03:08.914Z,30.30
2023-04-26T09:05:05.020Z,30.90
2023-04-26T09:06:04.906Z,31.60
2023-04-26T09:07:06.200Z,32.50
2023-04-26T09:08:06.180Z,33.00
2023-04-26T09:09:08.632Z,32.20
2023-04-26T09:10:04.005Z,32.20
2023-04-26T09:12:04.244Z,32.00
2023-04-26T09:13:03.961Z,31.40
2023-04-26T09:14:04.128Z,31.10
2023-04-26T09:15:03.888Z,31.10
2023-04-26T09:16:05.684Z,30.60
2023-04-26T09:17:04.334Z,30.20
2023-04-26T09:18:06.578Z,29.90
2023-04-26T09:19:06.634Z,30.50
2023-04-26T09:21:04.123Z,30.20
2023-04-26T09:22:03.798Z,29.80
2023-04-26T09:23:06.992Z,30.30
2023-04-26T09:25:04.156Z,29.50
2023-04-26T09:26:06.312Z,29.80
2023-04-26T09:28:04.473Z,29.40
2023-04-26T09:29:04.034Z,29.00
2023-04-26T09:30:03.575Z,28.80
2023-04-26T09:31:09.542Z,28.40
2023-04-26T09:32:04.170Z,28.60
2023-04-26T09:33:06.345Z,28.70
2023-04-26T09:35:06.056Z,28.50
2023-04-26T09:37:09.250Z,28.40
2023-04-26T09:38:12.926Z,28.20
2023-04-26T09:39:03.809Z,28.20
2023-04-26T09:40:04.314Z,28.60
2023-04-26T09:41:09.164Z,28.90
2023-04-26T09:43:03.783Z,28.80
2023-04-26T09:44:04.456Z,29.00
2023-04-26T09:45:06.605Z,29.00
2023-04-26T09:47:03.903Z,29.20
2023-04-26T09:48:03.666Z,29.00
2023-04-26T09:49:04.272Z,29.40
2023-04-26T09:50:06.549Z,28.90
2023-04-26T09:53:04.425Z,29.10
2023-04-26T09:54:06.583Z,29.50
2023-04-26T09:55:04.028Z,29.70
2023-04-26T09:57:04.225Z,28.40
2023-04-26T09:58:08.978Z,29.50
2023-04-26T10:00:04.293Z,28.90
2023-04-26T10:01:04.157Z,28.40
2023-04-26T10:02:03.828Z,28.30
2023-04-26T10:03:03.510Z,28.20
2023-04-26T10:04:04.428Z,28.00
2023-04-26T10:05:04.435Z,27.80
2023-04-26T10:06:04.103Z,27.30
2023-04-26T10:07:03.638Z,27.20
2023-04-26T10:08:04.367Z,26.50
2023-04-26T10:09:03.845Z,27.70
2023-04-26T10:10:04.436Z,28.10
2023-04-26T10:11:04.134Z,27.90
2023-04-26T10:12:06.485Z,25.80
2023-04-26T10:15:06.862Z,25.80
2023-04-26T10:16:04.497Z,25.70
2023-04-26T10:17:04.476Z,24.70
2023-04-26T10:18:06.781Z,25.00
2023-04-26T10:19:04.367Z,25.00
2023-04-26T10:20:04.119Z,25.60
2023-04-26T10:21:03.735Z,25.10
2023-04-26T10:22:09.442Z,25.60
2023-04-26T10:23:03.925Z,25.60
2023-04-26T10:25:06.692Z,26.80
2023-04-26T10:26:06.734Z,27.50
2023-04-26T10:27:06.745Z,28.20
2023-04-26T10:28:04.190Z,28.30
2023-04-26T10:29:04.329Z,27.00
2023-04-26T10:30:04.237Z,27.20
2023-04-26T10:31:06.369Z,27.70
2023-04-26T10:32:06.595Z,27.40
2023-04-26T10:33:04.150Z,27.20
2023-04-26T10:34:03.755Z,26.70
2023-04-26T10:35:04.391Z,27.20
2023-04-26T10:36:04.017Z,27.50
2023-04-26T10:37:06.101Z,27.60
2023-04-26T10:38:06.056Z,27.90
2023-04-26T10:39:11.156Z,28.10
2023-04-26T10:40:11.302Z,28.40
2023-04-26T10:42:03.612Z,28.70
2023-04-26T10:43:04.263Z,29.10
2023-04-26T10:44:06.357Z,29.80
2023-04-26T10:46:04.535Z,29.00
2023-04-26T10:47:09.291Z,27.50
2023-04-26T10:49:06.305Z,28.10
2023-04-26T10:51:06.378Z,27.70
2023-04-26T10:53:04.615Z,27.80
2023-04-26T10:54:06.729Z,27.50
2023-04-26T10:55:06.853Z,27.40
2023-04-26T10:56:04.310Z,27.40
2023-04-26T10:57:04.023Z,27.00
2023-04-26T10:58:03.571Z,27.00
2023-04-26T10:59:30.986Z,26.70
2023-04-26T11:00:03.606Z,26.90
2023-04-26T11:01:04.548Z,27.50
2023-04-26T11:02:06.797Z,27.60
2023-04-26T11:03:07.353Z,26.20
2023-04-26T11:04:03.984Z,26.30
2023-04-26T11:05:03.880Z,26.60
2023-04-26T11:06:03.542Z,27.20
2023-04-26T11:07:04.181Z,27.20
2023-04-26T11:08:03.744Z,27.30
2023-04-26T11:09:04.416Z,27.20
2023-04-26T11:10:06.622Z,27.40
2023-04-26T11:12:06.251Z,27.80
2023-04-26T11:13:11.304Z,28.00
2023-04-26T11:14:03.745Z,28.20
2023-04-26T11:15:06.929Z,28.30
2023-04-26T11:16:07.185Z,28.30
2023-04-26T11:17:03.760Z,28.40
2023-04-26T11:18:04.034Z,28.70
2023-04-26T11:19:06.218Z,28.20
2023-04-26T11:21:04.482Z,28.10
2023-04-26T11:22:06.646Z,28.10
2023-04-26T11:23:06.804Z,28.60
2023-04-26T11:24:04.269Z,28.40
2023-04-26T11:25:03.864Z,28.10
2023-04-26T11:26:04.525Z,27.50
2023-04-26T11:27:06.735Z,28.30
2023-04-26T11:29:06.316Z,27.80
2023-04-26T11:30:06.346Z,28.30
2023-04-26T11:32:03.530Z,28.50
2023-04-26T11:33:04.221Z,28.10
2023-04-26T11:34:03.830Z,28.00
2023-04-26T11:35:03.481Z,28.20
2023-04-26T11:36:04.111Z,27.30
2023-04-26T11:37:08.790Z,25.80
2023-04-26T11:38:04.174Z,25.70
2023-04-26T11:39:03.829Z,25.90
2023-04-26T11:40:06.933Z,26.40
2023-04-26T11:41:06.997Z,26.50
2023-04-26T11:43:06.721Z,26.50
2023-04-26T11:45:04.007Z,26.20
2023-04-26T11:46:03.984Z,26.20
2023-04-26T11:47:03.982Z,26.30
2023-04-26T11:48:06.356Z,26.20
2023-04-26T11:50:04.491Z,26.40
2023-04-26T11:53:04.178Z,27.10
2023-04-26T11:54:03.843Z,27.20
2023-04-26T11:55:03.526Z,27.30
2023-04-26T11:56:09.204Z,27.20
2023-04-26T11:57:03.692Z,27.20
2023-04-26T11:58:06.993Z,27.90
2023-04-26T11:59:13.667Z,27.50
2023-04-26T12:01:06.720Z,28.00
2023-04-26T12:02:04.421Z,27.50
2023-04-26T12:03:04.562Z,28.60
2023-04-26T12:04:04.541Z,29.10
2023-04-26T12:05:04.747Z,28.90
2023-04-26T12:06:04.405Z,28.30
2023-04-26T12:08:06.138Z,28.30
2023-04-26T12:09:08.718Z,28.00
2023-04-26T12:11:09.499Z,25.90
2023-04-26T12:12:06.561Z,26.50
2023-04-26T12:14:03.842Z,26.30
2023-04-26T12:15:06.963Z,26.10
2023-04-26T12:16:18.642Z,25.40
2023-04-26T12:18:07.074Z,26.20
2023-04-26T12:19:06.085Z,27.00
2023-04-26T12:21:07.012Z,27.40
2023-04-26T12:22:03.469Z,27.40
2023-04-26T12:23:04.087Z,27.80
2023-04-26T12:24:03.660Z,27.80
2023-04-26T12:25:06.807Z,27.80
2023-04-26T12:26:06.837Z,28.00
2023-04-26T12:27:04.350Z,27.90
2023-04-26T12:28:03.900Z,27.70
2023-04-26T12:29:06.097Z,27.70
2023-04-26T12:30:06.068Z,26.90
2023-04-26T12:32:04.661Z,26.80
2023-04-26T12:33:17.369Z,26.90
2023-04-26T12:34:04.407Z,25.70
2023-04-26T12:36:06.142Z,25.00
2023-04-26T12:37:06.140Z,24.80
2023-04-26T12:38:06.224Z,25.00
2023-04-26T12:40:04.452Z,25.50
2023-04-26T12:42:03.563Z,25.30
2023-04-26T12:43:04.089Z,24.90
2023-04-26T12:44:03.773Z,25.00
2023-04-26T12:45:06.962Z,25.60
2023-04-26T12:47:03.800Z,25.00
2023-04-26T12:48:07.200Z,26.00
2023-04-26T12:50:04.272Z,25.90
2023-04-26T12:51:04.128Z,26.10
2023-04-26T12:52:08.729Z,26.60
2023-04-26T12:53:04.147Z,26.40
2023-04-26T12:54:03.779Z,26.70
2023-04-26T12:55:07.049Z,26.20
2023-04-26T12:56:08.585Z,25.90
2023-04-26T12:58:04.169Z,25.60
2023-04-26T12:59:03.670Z,25.60
2023-04-26T13:00:04.217Z,25.70
2023-04-26T13:01:03.867Z,25.70
2023-04-26T13:02:03.505Z,25.60
2023-04-26T13:03:06.939Z,25.60
2023-04-26T13:04:07.009Z,25.60
2023-04-26T13:06:04.572Z,25.80
2023-04-26T13:07:04.174Z,25.90
2023-04-26T13:09:09.427Z,25.60
2023-04-26T13:12:07.006Z,26.30
2023-04-26T13:13:06.075Z,25.70
2023-04-26T13:15:04.384Z,26.70
2023-04-26T13:17:03.616Z,25.20
2023-04-26T13:18:04.308Z,25.10
2023-04-26T13:19:03.923Z,25.10
2023-04-26T13:20:03.546Z,25.10
2023-04-26T13:21:06.835Z,25.40
2023-04-26T13:22:04.310Z,25.40
2023-04-26T13:23:06.594Z,26.00
2023-04-26T13:24:06.489Z,26.30
2023-04-26T13:25:06.433Z,26.00
2023-04-26T13:26:06.477Z,25.60
2023-04-26T13:27:06.524Z,26.30
2023-04-26T13:28:04.040Z,26.60
2023-04-26T13:29:03.676Z,26.50
2023-04-26T13:30:04.449Z,27.00
2023-04-26T13:31:04.353Z,27.40
2023-04-26T13:32:04.115Z,27.00
2023-04-26T13:33:06.386Z,25.80
2023-04-26T13:35:03.642Z,26.10
2023-04-26T13:36:04.211Z,26.30
2023-04-26T13:37:06.312Z,26.30
2023-04-26T13:39:04.306Z,27.00
2023-04-26T13:41:03.506Z,26.50
2023-04-26T13:42:09.255Z,26.20
2023-04-26T13:43:03.789Z,26.50
2023-04-26T13:44:04.416Z,27.90
2023-04-26T13:45:03.992Z,27.30
2023-04-26T13:46:03.571Z,27.60
2023-04-26T13:47:04.270Z,27.90
2023-04-26T13:48:06.497Z,26.60
2023-04-26T13:51:07.279Z,26.50
2023-04-26T13:52:03.522Z,26.20
2023-04-26T13:53:06.776Z,26.10
2023-04-26T13:55:04.050Z,27.00
2023-04-26T13:57:04.268Z,27.30
2023-04-26T13:58:03.868Z,27.70
2023-04-26T13:59:04.429Z,28.00
2023-04-26T14:00:04.005Z,27.30
2023-04-26T14:01:03.715Z,27.30
2023-04-26T14:02:04.403Z,27.20
2023-04-26T14:03:04.097Z,26.40
2023-04-26T14:04:04.828Z,26.30
2023-04-26T14:06:06.795Z,25.70
2023-04-26T14:07:04.349Z,25.40
2023-04-26T14:08:06.499Z,24.80
2023-04-26T14:09:06.482Z,25.30
2023-04-26T14:11:03.552Z,24.50
2023-04-26T14:12:09.308Z,24.90
2023-04-26T14:14:07.011Z,25.70
2023-04-26T14:16:06.830Z,26.10
2023-04-26T14:17:09.505Z,26.30
2023-04-26T14:18:04.208Z,26.00
2023-04-26T14:19:09.001Z,25.30
2023-04-26T14:21:04.219Z,25.70
2023-04-26T14:23:03.519Z,25.60
2023-04-26T14:24:04.166Z,26.30
2023-04-26T14:25:06.236Z,27.40
2023-04-26T14:26:06.356Z,26.80
2023-04-26T14:27:06.363Z,26.70
2023-04-26T14:28:03.893Z,26.50
2023-04-26T14:29:07.161Z,26.10
2023-04-26T14:30:06.388Z,26.60
2023-04-26T14:33:06.892Z,27.30
2023-04-26T14:35:03.741Z,27.10
2023-04-26T14:36:04.378Z,27.40
2023-04-26T14:38:04.347Z,27.60
2023-04-26T14:39:06.496Z,26.90
2023-04-26T14:40:06.524Z,26.60
2023-04-26T14:41:04.043Z,26.50
2023-04-26T14:43:06.742Z,26.60
2023-04-26T14:45:06.187Z,27.10
2023-04-26T14:46:08.839Z,27.20
2023-04-26T14:47:04.366Z,26.70
2023-04-26T14:48:09.119Z,26.70
2023-04-26T14:49:06.192Z,28.00
2023-04-26T14:50:03.718Z,27.40
2023-04-26T14:51:06.861Z,27.60
2023-04-26T14:53:06.310Z,27.10
2023-04-26T14:55:04.332Z,27.20
2023-04-26T14:56:03.891Z,27.20
2023-04-26T14:57:04.414Z,27.20
2023-04-26T14:58:06.470Z,27.20
2023-04-26T15:00:06.233Z,27.30
2023-04-26T15:01:06.646Z,27.90
2023-04-26T15:02:06.677Z,28.20
2023-04-26T15:04:04.321Z,28.50
2023-04-26T15:05:04.346Z,28.70
2023-04-26T15:06:06.608Z,27.10
2023-04-26T15:08:03.650Z,27.50
2023-04-26T15:09:04.265Z,28.60
2023-04-26T15:10:04.039Z,28.80
2023-04-26T15:12:04.417Z,28.50
2023-04-26T15:14:04.198Z,28.60
2023-04-26T15:15:03.762Z,29.20
2023-04-26T15:16:08.120Z,28.40
2023-04-26T15:17:03.838Z,28.10
2023-04-26T15:18:04.607Z,27.80
2023-04-26T15:19:04.281Z,28.50
2023-04-26T15:20:03.914Z,27.90
2023-04-26T15:21:06.228Z,27.90
2023-04-26T15:22:03.745Z,28.00
2023-04-26T15:23:11.996Z,29.20
2023-04-26T15:25:06.738Z,29.10
2023-04-26T15:27:06.396Z,28.00
2023-04-26T15:28:06.400Z,27.40
2023-04-26T15:30:03.588Z,27.30
2023-04-26T15:31:04.441Z,27.20
2023-04-26T15:32:06.623Z,28.90
2023-04-26T15:34:06.546Z,29.70
2023-04-26T15:35:09.036Z,29.50
2023-04-26T15:36:03.438Z,30.40
2023-04-26T15:37:09.079Z,28.40
2023-04-26T15:38:06.128Z,29.00
2023-04-26T15:39:03.658Z,27.50
2023-04-26T15:40:06.756Z,29.60
2023-04-26T15:43:06.956Z,30.80
2023-04-26T15:45:03.982Z,30.90
2023-04-26T15:46:03.622Z,30.60
2023-04-26T15:47:04.344Z,31.50
2023-04-26T15:48:03.931Z,29.70
2023-04-26T15:49:06.070Z,29.80
2023-04-26T15:50:03.568Z,29.70
2023-04-26T15:51:04.122Z,29.50
2023-04-26T15:54:04.359Z,29.50
2023-04-26T15:55:06.643Z,29.20
2023-04-26T15:56:04.113Z,28.90
2023-04-26T15:57:03.636Z,29.70
2023-04-26T15:58:04.217Z,30.00
2023-04-26T15:59:03.793Z,30.20
2023-04-26T16:00:04.450Z,29.20
2023-04-26T16:01:04.073Z,28.60
2023-04-26T16:02:04.004Z,28.80
2023-04-26T16:03:04.019Z,28.40
2023-04-26T16:04:04.036Z,28.80
2023-04-26T16:06:06.860Z,29.50
2023-04-26T16:07:06.812Z,28.60
2023-04-26T16:09:23.177Z,29.60
2023-04-26T16:11:04.004Z,29.70
2023-04-26T16:13:06.812Z,29.70
2023-04-26T16:15:06.358Z,29.50
2023-04-26T16:16:06.375Z,29.30
2023-04-26T16:18:06.298Z,29.20
2023-04-26T16:19:08.907Z,29.00
2023-04-26T16:21:07.004Z,28.70
2023-04-26T16:22:06.985Z,28.60
2023-04-26T16:23:06.964Z,28.20
2023-04-26T16:24:09.860Z,28.20
2023-04-26T16:25:09.406Z,28.30
2023-04-26T16:27:05.982Z,30.10
2023-04-26T16:29:06.658Z,30.20
2023-04-26T16:31:03.807Z,30.40
2023-04-26T16:32:06.909Z,27.20
2023-04-26T16:33:04.340Z,27.20